sensor_id;sensor_type;location;lat;lon;timestamp;temperature;humidity
42663;DHT22;44330;51.360;6.686;2023-04-24T00:00:08;11.50;57.20
42663;DHT22;44330;51.360;6.686;2023-04-24T00:02:34;11.50;54.30
42663;DHT22;44330;51.360;6.686;2023-04-24T00:05:03;11.60;52.50
42663;DHT22;44330;51.360;6.686;2023-04-24T00:07:30;11.50;54.50
42663;DHT22;44330;51.360;6.686;2023-04-24T00:09:55;11.50;52.40
42663;DHT22;44330;51.360;6.686;2023-04-24T00:12:21;11.60;50.70
42663;DHT22;44330;51.360;6.686;2023-04-24T00:14:46;11.50;49.90
42663;DHT22;44330;51.360;6.686;2023-04-24T00:17:12;11.50;52.20
42663;DHT22;44330;51.360;6.686;2023-04-24T00:19:38;11.50;51.70
42663;DHT22;44330;51.360;6.686;2023-04-24T00:22:03;11.40;52.00
42663;DHT22;44330;51.360;6.686;2023-04-24T00:24:29;11.40;52.10
42663;DHT22;44330;51.360;6.686;2023-04-24T00:26:55;11.40;54.60
42663;DHT22;44330;51.360;6.686;2023-04-24T00:29:20;11.40;53.20
42663;DHT22;44330;51.360;6.686;2023-04-24T00:31:46;11.40;53.50
42663;DHT22;44330;51.360;6.686;2023-04-24T00:34:11;11.40;52.80
42663;DHT22;44330;51.360;6.686;2023-04-24T00:36:37;11.40;53.50
42663;DHT22;44330;51.360;6.686;2023-04-24T00:39:03;11.40;56.00
42663;DHT22;44330;51.360;6.686;2023-04-24T00:41:29;11.30;54.20
42663;DHT22;44330;51.360;6.686;2023-04-24T00:43:55;11.20;49.30
42663;DHT22;44330;51.360;6.686;2023-04-24T00:46:21;11.20;47.90
42663;DHT22;44330;51.360;6.686;2023-04-24T00:48:46;11.10;45.10
42663;DHT22;44330;51.360;6.686;2023-04-24T00:51:12;11.00;46.80
42663;DHT22;44330;51.360;6.686;2023-04-24T00:53:38;10.90;50.20
42663;DHT22;44330;51.360;6.686;2023-04-24T00:56:04;10.80;51.60
42663;DHT22;44330;51.360;6.686;2023-04-24T00:58:30;10.80;49.70
42663;DHT22;44330;51.360;6.686;2023-04-24T01:00:57;10.80;51.20
42663;DHT22;44330;51.360;6.686;2023-04-24T01:03:29;10.70;48.80
42663;DHT22;44330;51.360;6.686;2023-04-24T01:05:56;10.70;51.00
42663;DHT22;44330;51.360;6.686;2023-04-24T01:08:24;10.50;50.60
42663;DHT22;44330;51.360;6.686;2023-04-24T01:10:52;10.50;53.50
42663;DHT22;44330;51.360;6.686;2023-04-24T01:13:18;10.40;53.30
42663;DHT22;44330;51.360;6.686;2023-04-24T01:15:45;10.30;55.90
42663;DHT22;44330;51.360;6.686;2023-04-24T01:18:11;10.30;55.60
42663;DHT22;44330;51.360;6.686;2023-04-24T01:20:41;10.20;57.00
42663;DHT22;44330;51.360;6.686;2023-04-24T01:23:08;10.20;57.60
42663;DHT22;44330;51.360;6.686;2023-04-24T01:25:34;10.20;57.90
42663;DHT22;44330;51.360;6.686;2023-04-24T01:28:00;10.10;58.80
42663;DHT22;44330;51.360;6.686;2023-04-24T01:30:26;10.00;62.60
42663;DHT22;44330;51.360;6.686;2023-04-24T01:32:52;10.10;64.70
42663;DHT22;44330;51.360;6.686;2023-04-24T01:35:18;10.00;63.80
42663;DHT22;44330;51.360;6.686;2023-04-24T01:37:44;10.10;65.00
42663;DHT22;44330;51.360;6.686;2023-04-24T01:40:10;10.10;66.70
42663;DHT22;44330;51.360;6.686;2023-04-24T01:42:36;10.10;65.30
42663;DHT22;44330;51.360;6.686;2023-04-24T01:45:03;10.10;63.80
42663;DHT22;44330;51.360;6.686;2023-04-24T01:47:30;10.20;65.30
42663;DHT22;44330;51.360;6.686;2023-04-24T01:49:56;10.10;65.50
42663;DHT22;44330;51.360;6.686;2023-04-24T01:52:21;10.20;61.70
42663;DHT22;44330;51.360;6.686;2023-04-24T01:54:47;10.20;60.60
42663;DHT22;44330;51.360;6.686;2023-04-24T01:57:14;10.10;60.50
42663;DHT22;44330;51.360;6.686;2023-04-24T01:59:39;10.10;61.90
42663;DHT22;44330;51.360;6.686;2023-04-24T02:02:05;10.00;63.50
42663;DHT22;44330;51.360;6.686;2023-04-24T02:04:31;10.10;60.80
42663;DHT22;44330;51.360;6.686;2023-04-24T02:06:57;10.10;62.00
42663;DHT22;44330;51.360;6.686;2023-04-24T02:09:22;10.10;62.90
42663;DHT22;44330;51.360;6.686;2023-04-24T02:11:48;10.00;64.10
42663;DHT22;44330;51.360;6.686;2023-04-24T02:14:14;10.00;63.20
42663;DHT22;44330;51.360;6.686;2023-04-24T02:16:39;10.00;64.00
42663;DHT22;44330;51.360;6.686;2023-04-24T02:19:05;10.00;64.20
42663;DHT22;44330;51.360;6.686;2023-04-24T02:21:31;10.00;64.00
42663;DHT22;44330;51.360;6.686;2023-04-24T02:23:57;10.00;64.10
42663;DHT22;44330;51.360;6.686;2023-04-24T02:26:22;10.00;64.40
42663;DHT22;44330;51.360;6.686;2023-04-24T02:28:48;10.00;64.20
42663;DHT22;44330;51.360;6.686;2023-04-24T02:31:14;10.00;64.20
42663;DHT22;44330;51.360;6.686;2023-04-24T02:33:40;10.00;66.80
42663;DHT22;44330;51.360;6.686;2023-04-24T02:36:05;10.00;65.40
42663;DHT22;44330;51.360;6.686;2023-04-24T02:38:31;10.00;64.80
42663;DHT22;44330;51.360;6.686;2023-04-24T02:40:57;10.10;64.30
42663;DHT22;44330;51.360;6.686;2023-04-24T02:43:22;10.00;63.60
42663;DHT22;44330;51.360;6.686;2023-04-24T02:45:48;10.10;63.80
42663;DHT22;44330;51.360;6.686;2023-04-24T02:48:14;10.00;65.20
42663;DHT22;44330;51.360;6.686;2023-04-24T02:50:40;10.00;65.20
42663;DHT22;44330;51.360;6.686;2023-04-24T02:53:05;10.00;64.40
42663;DHT22;44330;51.360;6.686;2023-04-24T02:55:31;10.00;65.70
42663;DHT22;44330;51.360;6.686;2023-04-24T02:57:56;10.10;65.60
42663;DHT22;44330;51.360;6.686;2023-04-24T03:00:22;10.00;65.70
42663;DHT22;44330;51.360;6.686;2023-04-24T03:02:47;10.10;66.60
42663;DHT22;44330;51.360;6.686;2023-04-24T03:05:14;10.00;66.50
42663;DHT22;44330;51.360;6.686;2023-04-24T03:07:40;10.10;66.80
42663;DHT22;44330;51.360;6.686;2023-04-24T03:10:06;10.00;66.20
42663;DHT22;44330;51.360;6.686;2023-04-24T03:12:32;10.10;65.10
42663;DHT22;44330;51.360;6.686;2023-04-24T03:14:58;10.10;65.80
42663;DHT22;44330;51.360;6.686;2023-04-24T03:17:23;10.10;65.80
42663;DHT22;44330;51.360;6.686;2023-04-24T03:19:49;10.10;65.50
42663;DHT22;44330;51.360;6.686;2023-04-24T03:22:15;10.00;64.90
42663;DHT22;44330;51.360;6.686;2023-04-24T03:24:40;10.10;65.70
42663;DHT22;44330;51.360;6.686;2023-04-24T03:27:06;10.10;64.50
42663;DHT22;44330;51.360;6.686;2023-04-24T03:29:31;10.10;65.00
42663;DHT22;44330;51.360;6.686;2023-04-24T03:31:57;10.00;65.20
42663;DHT22;44330;51.360;6.686;2023-04-24T03:34:25;10.10;64.40
42663;DHT22;44330;51.360;6.686;2023-04-24T03:36:53;10.10;63.50
42663;DHT22;44330;51.360;6.686;2023-04-24T03:39:19;10.10;63.20
42663;DHT22;44330;51.360;6.686;2023-04-24T03:41:44;10.10;63.80
42663;DHT22;44330;51.360;6.686;2023-04-24T03:44:10;10.10;60.70
42663;DHT22;44330;51.360;6.686;2023-04-24T03:46:36;10.10;63.10
42663;DHT22;44330;51.360;6.686;2023-04-24T03:49:01;10.10;65.50
42663;DHT22;44330;51.360;6.686;2023-04-24T03:51:27;10.10;65.00
42663;DHT22;44330;51.360;6.686;2023-04-24T03:53:53;10.10;63.40
42663;DHT22;44330;51.360;6.686;2023-04-24T03:56:19;10.10;61.50
42663;DHT22;44330;51.360;6.686;2023-04-24T03:58:45;10.10;63.00
42663;DHT22;44330;51.360;6.686;2023-04-24T04:01:10;10.10;63.40
42663;DHT22;44330;51.360;6.686;2023-04-24T04:03:37;10.20;61.60
42663;DHT22;44330;51.360;6.686;2023-04-24T04:06:02;10.10;63.10
42663;DHT22;44330;51.360;6.686;2023-04-24T04:08:28;10.10;62.90
42663;DHT22;44330;51.360;6.686;2023-04-24T04:10:53;10.10;63.40
42663;DHT22;44330;51.360;6.686;2023-04-24T04:13:20;10.10;62.70
42663;DHT22;44330;51.360;6.686;2023-04-24T04:15:45;10.20;61.20
42663;DHT22;44330;51.360;6.686;2023-04-24T04:18:11;10.20;60.00
42663;DHT22;44330;51.360;6.686;2023-04-24T04:20:36;10.20;62.10
42663;DHT22;44330;51.360;6.686;2023-04-24T04:23:02;10.10;63.00
42663;DHT22;44330;51.360;6.686;2023-04-24T04:25:27;10.10;60.70
42663;DHT22;44330;51.360;6.686;2023-04-24T04:27:54;10.20;61.10
42663;DHT22;44330;51.360;6.686;2023-04-24T04:30:20;10.10;60.60
42663;DHT22;44330;51.360;6.686;2023-04-24T04:32:46;10.10;60.10
42663;DHT22;44330;51.360;6.686;2023-04-24T04:35:11;10.10;59.90
42663;DHT22;44330;51.360;6.686;2023-04-24T04:37:37;10.10;59.50
42663;DHT22;44330;51.360;6.686;2023-04-24T04:40:03;10.10;59.10
42663;DHT22;44330;51.360;6.686;2023-04-24T04:42:33;10.10;56.30
42663;DHT22;44330;51.360;6.686;2023-04-24T04:45:01;10.10;57.30
42663;DHT22;44330;51.360;6.686;2023-04-24T04:47:27;10.00;58.60
42663;DHT22;44330;51.360;6.686;2023-04-24T04:49:53;10.00;56.40
42663;DHT22;44330;51.360;6.686;2023-04-24T04:52:19;10.00;56.60
42663;DHT22;44330;51.360;6.686;2023-04-24T04:54:45;10.00;55.70
42663;DHT22;44330;51.360;6.686;2023-04-24T04:57:11;10.00;58.10
42663;DHT22;44330;51.360;6.686;2023-04-24T04:59:37;10.00;58.70
42663;DHT22;44330;51.360;6.686;2023-04-24T05:02:03;10.10;57.00
42663;DHT22;44330;51.360;6.686;2023-04-24T05:04:29;10.00;57.10
42663;DHT22;44330;51.360;6.686;2023-04-24T05:06:55;10.00;60.10
42663;DHT22;44330;51.360;6.686;2023-04-24T05:09:21;9.90;64.40
42663;DHT22;44330;51.360;6.686;2023-04-24T05:11:47;9.90;69.40
42663;DHT22;44330;51.360;6.686;2023-04-24T05:14:12;9.80;74.20
42663;DHT22;44330;51.360;6.686;2023-04-24T05:16:38;9.60;78.30
42663;DHT22;44330;51.360;6.686;2023-04-24T05:19:04;9.50;81.40
42663;DHT22;44330;51.360;6.686;2023-04-24T05:21:30;9.60;82.30
42663;DHT22;44330;51.360;6.686;2023-04-24T05:23:56;9.40;82.60
42663;DHT22;44330;51.360;6.686;2023-04-24T05:26:22;9.40;82.30
42663;DHT22;44330;51.360;6.686;2023-04-24T05:28:50;9.40;83.30
42663;DHT22;44330;51.360;6.686;2023-04-24T05:31:16;9.30;83.90
42663;DHT22;44330;51.360;6.686;2023-04-24T05:33:43;9.30;84.50
42663;DHT22;44330;51.360;6.686;2023-04-24T05:36:11;9.40;82.30
42663;DHT22;44330;51.360;6.686;2023-04-24T05:38:37;9.50;80.50
42663;DHT22;44330;51.360;6.686;2023-04-24T05:41:03;9.40;79.80
42663;DHT22;44330;51.360;6.686;2023-04-24T05:43:28;9.40;80.00
42663;DHT22;44330;51.360;6.686;2023-04-24T05:45:56;9.40;79.20
42663;DHT22;44330;51.360;6.686;2023-04-24T05:48:22;9.50;80.10
42663;DHT22;44330;51.360;6.686;2023-04-24T05:50:50;9.50;80.30
42663;DHT22;44330;51.360;6.686;2023-04-24T05:53:16;9.50;78.00
42663;DHT22;44330;51.360;6.686;2023-04-24T05:55:41;9.60;76.40
42663;DHT22;44330;51.360;6.686;2023-04-24T05:58:07;9.60;76.50
42663;DHT22;44330;51.360;6.686;2023-04-24T06:00:35;9.60;77.10
42663;DHT22;44330;51.360;6.686;2023-04-24T06:03:01;9.60;77.40
42663;DHT22;44330;51.360;6.686;2023-04-24T06:05:29;9.50;80.30
42663;DHT22;44330;51.360;6.686;2023-04-24T06:08:02;9.60;82.30
42663;DHT22;44330;51.360;6.686;2023-04-24T06:10:31;9.60;83.00
42663;DHT22;44330;51.360;6.686;2023-04-24T06:16:07;9.50;84.30
42663;DHT22;44330;51.360;6.686;2023-04-24T06:21:23;9.50;83.30
42663;DHT22;44330;51.360;6.686;2023-04-24T06:23:49;9.40;84.70
42663;DHT22;44330;51.360;6.686;2023-04-24T06:26:15;9.50;85.80
42663;DHT22;44330;51.360;6.686;2023-04-24T06:28:40;9.50;84.60
42663;DHT22;44330;51.360;6.686;2023-04-24T06:31:06;9.50;84.50
42663;DHT22;44330;51.360;6.686;2023-04-24T06:33:35;9.50;83.90
42663;DHT22;44330;51.360;6.686;2023-04-24T06:36:00;9.50;83.80
42663;DHT22;44330;51.360;6.686;2023-04-24T06:38:26;9.50;84.40
42663;DHT22;44330;51.360;6.686;2023-04-24T06:40:52;9.50;83.10
42663;DHT22;44330;51.360;6.686;2023-04-24T06:43:26;9.50;85.10
42663;DHT22;44330;51.360;6.686;2023-04-24T06:45:55;9.40;83.10
42663;DHT22;44330;51.360;6.686;2023-04-24T06:48:43;9.40;84.70
42663;DHT22;44330;51.360;6.686;2023-04-24T06:58:02;9.40;87.40
42663;DHT22;44330;51.360;6.686;2023-04-24T07:00:28;9.50;86.50
42663;DHT22;44330;51.360;6.686;2023-04-24T07:02:56;9.50;87.30
42663;DHT22;44330;51.360;6.686;2023-04-24T07:05:28;9.60;88.10
42663;DHT22;44330;51.360;6.686;2023-04-24T07:08:03;9.50;85.40
42663;DHT22;44330;51.360;6.686;2023-04-24T07:10:29;9.40;85.00
42663;DHT22;44330;51.360;6.686;2023-04-24T07:13:04;9.40;83.60
42663;DHT22;44330;51.360;6.686;2023-04-24T07:18:36;9.30;83.10
42663;DHT22;44330;51.360;6.686;2023-04-24T07:21:02;9.10;84.60
42663;DHT22;44330;51.360;6.686;2023-04-24T07:23:41;9.10;85.40
42663;DHT22;44330;51.360;6.686;2023-04-24T07:26:10;9.00;81.60
42663;DHT22;44330;51.360;6.686;2023-04-24T07:28:43;9.00;81.50
42663;DHT22;44330;51.360;6.686;2023-04-24T07:31:11;8.90;82.00
42663;DHT22;44330;51.360;6.686;2023-04-24T07:33:39;8.80;80.40
42663;DHT22;44330;51.360;6.686;2023-04-24T07:36:05;8.70;82.50
42663;DHT22;44330;51.360;6.686;2023-04-24T07:41:15;8.60;81.60
42663;DHT22;44330;51.360;6.686;2023-04-24T07:43:41;8.60;85.80
42663;DHT22;44330;51.360;6.686;2023-04-24T07:52:04;8.40;88.00
42663;DHT22;44330;51.360;6.686;2023-04-24T07:58:01;8.40;90.50
42663;DHT22;44330;51.360;6.686;2023-04-24T08:00:43;8.40;90.50
42663;DHT22;44330;51.360;6.686;2023-04-24T08:03:22;8.50;90.90
42663;DHT22;44330;51.360;6.686;2023-04-24T08:06:53;8.50;91.20
42663;DHT22;44330;51.360;6.686;2023-04-24T08:09:05;8.60;91.10
42663;DHT22;44330;51.360;6.686;2023-04-24T08:11:39;8.60;90.90
42663;DHT22;44330;51.360;6.686;2023-04-24T08:14:10;8.60;91.20
42663;DHT22;44330;51.360;6.686;2023-04-24T08:16:40;8.60;91.40
42663;DHT22;44330;51.360;6.686;2023-04-24T08:19:09;8.70;91.50
42663;DHT22;44330;51.360;6.686;2023-04-24T08:21:35;8.70;91.80
42663;DHT22;44330;51.360;6.686;2023-04-24T08:24:00;8.70;91.80
42663;DHT22;44330;51.360;6.686;2023-04-24T08:29:59;8.80;91.20
42663;DHT22;44330;51.360;6.686;2023-04-24T08:32:46;8.80;91.70
42663;DHT22;44330;51.360;6.686;2023-04-24T08:35:14;8.80;91.70
42663;DHT22;44330;51.360;6.686;2023-04-24T08:37:39;8.80;91.80
42663;DHT22;44330;51.360;6.686;2023-04-24T08:50:14;9.10;92.10
42663;DHT22;44330;51.360;6.686;2023-04-24T08:52:42;9.10;92.40
42663;DHT22;44330;51.360;6.686;2023-04-24T08:55:07;9.10;92.30
42663;DHT22;44330;51.360;6.686;2023-04-24T08:57:36;9.10;92.20
42663;DHT22;44330;51.360;6.686;2023-04-24T09:00:09;9.10;92.60
42663;DHT22;44330;51.360;6.686;2023-04-24T09:02:38;9.10;92.70
42663;DHT22;44330;51.360;6.686;2023-04-24T09:05:06;9.20;92.60
42663;DHT22;44330;51.360;6.686;2023-04-24T09:07:35;9.20;92.20
42663;DHT22;44330;51.360;6.686;2023-04-24T09:10:18;9.10;91.70
42663;DHT22;44330;51.360;6.686;2023-04-24T09:12:44;9.10;91.70
42663;DHT22;44330;51.360;6.686;2023-04-24T09:15:11;9.10;91.90
42663;DHT22;44330;51.360;6.686;2023-04-24T09:17:37;9.10;91.90
42663;DHT22;44330;51.360;6.686;2023-04-24T09:20:03;9.10;91.90
42663;DHT22;44330;51.360;6.686;2023-04-24T09:22:42;9.00;92.40
42663;DHT22;44330;51.360;6.686;2023-04-24T09:25:09;9.10;92.50
42663;DHT22;44330;51.360;6.686;2023-04-24T09:27:42;9.00;92.50
42663;DHT22;44330;51.360;6.686;2023-04-24T09:30:14;9.00;92.60
42663;DHT22;44330;51.360;6.686;2023-04-24T09:32:46;9.00;91.80
42663;DHT22;44330;51.360;6.686;2023-04-24T09:35:13;9.00;91.80
42663;DHT22;44330;51.360;6.686;2023-04-24T09:37:46;9.00;91.60
42663;DHT22;44330;51.360;6.686;2023-04-24T09:40:26;9.00;91.50
42663;DHT22;44330;51.360;6.686;2023-04-24T09:42:56;8.90;91.90
42663;DHT22;44330;51.360;6.686;2023-04-24T09:45:57;8.90;92.50
42663;DHT22;44330;51.360;6.686;2023-04-24T09:48:32;9.00;92.70
42663;DHT22;44330;51.360;6.686;2023-04-24T09:50:59;9.10;92.60
42663;DHT22;44330;51.360;6.686;2023-04-24T09:53:38;9.10;92.30
42663;DHT22;44330;51.360;6.686;2023-04-24T09:56:10;9.10;92.70
42663;DHT22;44330;51.360;6.686;2023-04-24T09:58:40;9.10;92.40
42663;DHT22;44330;51.360;6.686;2023-04-24T10:01:08;9.30;92.80
42663;DHT22;44330;51.360;6.686;2023-04-24T10:03:37;9.30;91.40
42663;DHT22;44330;51.360;6.686;2023-04-24T10:06:03;9.40;91.60
42663;DHT22;44330;51.360;6.686;2023-04-24T10:08:35;9.50;91.20
42663;DHT22;44330;51.360;6.686;2023-04-24T10:11:01;9.50;90.90
42663;DHT22;44330;51.360;6.686;2023-04-24T10:13:28;9.60;90.80
42663;DHT22;44330;51.360;6.686;2023-04-24T10:15:54;9.50;89.00
42663;DHT22;44330;51.360;6.686;2023-04-24T10:18:21;9.50;90.20
42663;DHT22;44330;51.360;6.686;2023-04-24T10:20:47;9.60;90.80
42663;DHT22;44330;51.360;6.686;2023-04-24T10:23:13;9.70;89.30
42663;DHT22;44330;51.360;6.686;2023-04-24T10:25:39;9.70;87.90
42663;DHT22;44330;51.360;6.686;2023-04-24T10:28:05;9.70;88.00
42663;DHT22;44330;51.360;6.686;2023-04-24T10:30:33;9.70;87.30
42663;DHT22;44330;51.360;6.686;2023-04-24T10:33:06;9.80;88.70
42663;DHT22;44330;51.360;6.686;2023-04-24T10:35:37;9.80;89.60
42663;DHT22;44330;51.360;6.686;2023-04-24T10:38:11;9.80;90.10
42663;DHT22;44330;51.360;6.686;2023-04-24T10:40:37;9.90;90.20
42663;DHT22;44330;51.360;6.686;2023-04-24T10:43:04;10.00;87.00
42663;DHT22;44330;51.360;6.686;2023-04-24T10:45:31;9.90;87.30
42663;DHT22;44330;51.360;6.686;2023-04-24T10:50:28;9.90;87.40
42663;DHT22;44330;51.360;6.686;2023-04-24T10:53:06;10.00;90.30
42663;DHT22;44330;51.360;6.686;2023-04-24T10:55:51;10.10;88.80
42663;DHT22;44330;51.360;6.686;2023-04-24T10:58:22;10.20;86.90
42663;DHT22;44330;51.360;6.686;2023-04-24T11:00:58;10.20;87.90
42663;DHT22;44330;51.360;6.686;2023-04-24T11:03:29;10.40;86.50
42663;DHT22;44330;51.360;6.686;2023-04-24T11:06:03;10.40;82.80
42663;DHT22;44330;51.360;6.686;2023-04-24T11:08:42;10.60;84.20
42663;DHT22;44330;51.360;6.686;2023-04-24T11:11:13;10.50;78.00
42663;DHT22;44330;51.360;6.686;2023-04-24T11:16:32;10.30;71.70
42663;DHT22;44330;51.360;6.686;2023-04-24T11:32:36;10.60;77.70
42663;DHT22;44330;51.360;6.686;2023-04-24T11:35:15;10.80;72.90
42663;DHT22;44330;51.360;6.686;2023-04-24T11:37:44;11.00;69.30
42663;DHT22;44330;51.360;6.686;2023-04-24T11:43:51;11.50;70.20
42663;DHT22;44330;51.360;6.686;2023-04-24T11:46:21;11.70;54.60
42663;DHT22;44330;51.360;6.686;2023-04-24T11:48:47;11.70;61.00
42663;DHT22;44330;51.360;6.686;2023-04-24T11:51:13;11.90;58.70
42663;DHT22;44330;51.360;6.686;2023-04-24T11:53:55;11.80;36.40
42663;DHT22;44330;51.360;6.686;2023-04-24T11:56:22;11.70;37.70
42663;DHT22;44330;51.360;6.686;2023-04-24T11:58:48;11.60;50.10
42663;DHT22;44330;51.360;6.686;2023-04-24T12:01:14;11.60;36.40
42663;DHT22;44330;51.360;6.686;2023-04-24T12:03:40;11.60;50.90
42663;DHT22;44330;51.360;6.686;2023-04-24T12:06:09;11.50;39.60
42663;DHT22;44330;51.360;6.686;2023-04-24T12:08:36;11.50;39.10
42663;DHT22;44330;51.360;6.686;2023-04-24T12:11:03;11.30;30.60
42663;DHT22;44330;51.360;6.686;2023-04-24T12:13:29;11.10;34.00
42663;DHT22;44330;51.360;6.686;2023-04-24T12:15:56;11.00;40.50
42663;DHT22;44330;51.360;6.686;2023-04-24T12:18:25;11.00;37.30
42663;DHT22;44330;51.360;6.686;2023-04-24T12:20:51;10.90;38.20
42663;DHT22;44330;51.360;6.686;2023-04-24T12:23:28;10.80;43.80
42663;DHT22;44330;51.360;6.686;2023-04-24T12:26:03;10.80;47.30
42663;DHT22;44330;51.360;6.686;2023-04-24T12:28:35;10.90;57.20
42663;DHT22;44330;51.360;6.686;2023-04-24T12:31:01;11.00;54.60
42663;DHT22;44330;51.360;6.686;2023-04-24T12:33:27;11.10;39.50
42663;DHT22;44330;51.360;6.686;2023-04-24T12:35:53;11.20;31.70
42663;DHT22;44330;51.360;6.686;2023-04-24T12:38:22;11.30;35.10
42663;DHT22;44330;51.360;6.686;2023-04-24T12:41:08;11.20;39.70
42663;DHT22;44330;51.360;6.686;2023-04-24T12:43:34;11.30;38.60
42663;DHT22;44330;51.360;6.686;2023-04-24T12:46:00;11.20;38.80
42663;DHT22;44330;51.360;6.686;2023-04-24T12:48:27;11.10;28.50
42663;DHT22;44330;51.360;6.686;2023-04-24T12:50:52;11.10;23.00
42663;DHT22;44330;51.360;6.686;2023-04-24T12:53:18;11.10;14.60
42663;DHT22;44330;51.360;6.686;2023-04-24T12:55:44;11.10;22.90
42663;DHT22;44330;51.360;6.686;2023-04-24T12:58:10;11.00;15.80
42663;DHT22;44330;51.360;6.686;2023-04-24T13:00:36;11.00;21.20
42663;DHT22;44330;51.360;6.686;2023-04-24T13:03:02;10.80;10.40
42663;DHT22;44330;51.360;6.686;2023-04-24T13:05:28;10.70;32.10
42663;DHT22;44330;51.360;6.686;2023-04-24T13:07:54;10.70;31.60
42663;DHT22;44330;51.360;6.686;2023-04-24T13:10:19;10.80;25.50
42663;DHT22;44330;51.360;6.686;2023-04-24T13:12:45;10.90;33.10
42663;DHT22;44330;51.360;6.686;2023-04-24T13:15:11;11.00;24.80
42663;DHT22;44330;51.360;6.686;2023-04-24T13:17:37;11.10;10.10
42663;DHT22;44330;51.360;6.686;2023-04-24T13:20:03;11.00;6.30
42663;DHT22;44330;51.360;6.686;2023-04-24T13:22:28;11.10;10.60
42663;DHT22;44330;51.360;6.686;2023-04-24T13:24:54;11.10;17.80
42663;DHT22;44330;51.360;6.686;2023-04-24T13:27:20;11.20;9.60
42663;DHT22;44330;51.360;6.686;2023-04-24T13:29:45;11.30;10.30
42663;DHT22;44330;51.360;6.686;2023-04-24T13:32:11;11.50;17.20
42663;DHT22;44330;51.360;6.686;2023-04-24T13:34:36;11.60;17.10
42663;DHT22;44330;51.360;6.686;2023-04-24T13:37:03;12.00;7.40
42663;DHT22;44330;51.360;6.686;2023-04-24T13:39:29;12.30;1.00
42663;DHT22;44330;51.360;6.686;2023-04-24T13:41:55;12.40;1.00
42663;DHT22;44330;51.360;6.686;2023-04-24T13:44:21;12.40;1.00
42663;DHT22;44330;51.360;6.686;2023-04-24T13:46:49;12.30;99.90
42663;DHT22;44330;51.360;6.686;2023-04-24T13:49:16;12.20;99.90
42663;DHT22;44330;51.360;6.686;2023-04-24T13:51:42;12.10;99.90
42663;DHT22;44330;51.360;6.686;2023-04-24T13:54:08;12.00;99.90
42663;DHT22;44330;51.360;6.686;2023-04-24T13:56:34;12.00;1.00
42663;DHT22;44330;51.360;6.686;2023-04-24T13:58:59;12.00;99.90
42663;DHT22;44330;51.360;6.686;2023-04-24T14:01:25;12.10;99.90
42663;DHT22;44330;51.360;6.686;2023-04-24T14:03:55;12.30;99.90
42663;DHT22;44330;51.360;6.686;2023-04-24T14:06:22;12.30;99.90
42663;DHT22;44330;51.360;6.686;2023-04-24T14:08:48;12.30;99.90
42663;DHT22;44330;51.360;6.686;2023-04-24T14:11:16;12.40;99.90
42663;DHT22;44330;51.360;6.686;2023-04-24T14:13:41;12.30;99.90
42663;DHT22;44330;51.360;6.686;2023-04-24T14:16:08;12.30;99.90
42663;DHT22;44330;51.360;6.686;2023-04-24T14:18:33;12.40;99.90
42663;DHT22;44330;51.360;6.686;2023-04-24T14:21:05;12.40;14.20
42663;DHT22;44330;51.360;6.686;2023-04-24T14:23:31;12.40;99.90
42663;DHT22;44330;51.360;6.686;2023-04-24T14:25:59;12.40;99.90
42663;DHT22;44330;51.360;6.686;2023-04-24T14:28:24;12.40;1.00
42663;DHT22;44330;51.360;6.686;2023-04-24T14:30:50;12.40;99.90
42663;DHT22;44330;51.360;6.686;2023-04-24T14:33:16;12.30;19.50
42663;DHT22;44330;51.360;6.686;2023-04-24T14:35:42;12.10;99.90
42663;DHT22;44330;51.360;6.686;2023-04-24T14:38:08;12.10;90.30
42663;DHT22;44330;51.360;6.686;2023-04-24T14:40:34;12.10;99.90
42663;DHT22;44330;51.360;6.686;2023-04-24T14:43:00;12.10;99.90
42663;DHT22;44330;51.360;6.686;2023-04-24T14:45:26;12.20;99.90
42663;DHT22;44330;51.360;6.686;2023-04-24T14:47:52;12.10;99.90
42663;DHT22;44330;51.360;6.686;2023-04-24T14:50:18;12.00;1.00
42663;DHT22;44330;51.360;6.686;2023-04-24T14:52:44;11.90;1.00
42663;DHT22;44330;51.360;6.686;2023-04-24T14:55:09;11.90;1.00
42663;DHT22;44330;51.360;6.686;2023-04-24T14:57:35;11.90;1.00
42663;DHT22;44330;51.360;6.686;2023-04-24T15:00:05;12.00;1.00
42663;DHT22;44330;51.360;6.686;2023-04-24T15:02:34;11.90;99.90
42663;DHT22;44330;51.360;6.686;2023-04-24T15:04:59;11.90;99.90
42663;DHT22;44330;51.360;6.686;2023-04-24T15:07:25;12.00;92.70
42663;DHT22;44330;51.360;6.686;2023-04-24T15:09:50;12.10;99.90
42663;DHT22;44330;51.360;6.686;2023-04-24T15:12:16;12.00;99.50
42663;DHT22;44330;51.360;6.686;2023-04-24T15:14:42;11.90;99.90
42663;DHT22;44330;51.360;6.686;2023-04-24T15:17:07;11.90;99.90
42663;DHT22;44330;51.360;6.686;2023-04-24T15:19:33;11.90;1.00
42663;DHT22;44330;51.360;6.686;2023-04-24T15:21:58;12.00;99.90
42663;DHT22;44330;51.360;6.686;2023-04-24T15:24:24;12.00;1.00
42663;DHT22;44330;51.360;6.686;2023-04-24T15:26:50;12.20;92.00
42663;DHT22;44330;51.360;6.686;2023-04-24T15:29:16;12.30;1.00
42663;DHT22;44330;51.360;6.686;2023-04-24T15:31:41;12.30;99.90
42663;DHT22;44330;51.360;6.686;2023-04-24T15:34:07;12.40;1.00
42663;DHT22;44330;51.360;6.686;2023-04-24T15:36:34;12.30;99.90
42663;DHT22;44330;51.360;6.686;2023-04-24T15:39:01;12.30;99.90
42663;DHT22;44330;51.360;6.686;2023-04-24T15:41:27;12.50;99.90
42663;DHT22;44330;51.360;6.686;2023-04-24T15:43:52;12.60;1.00
42663;DHT22;44330;51.360;6.686;2023-04-24T15:46:18;12.60;94.20
42663;DHT22;44330;51.360;6.686;2023-04-24T15:48:43;12.50;99.90
42663;DHT22;44330;51.360;6.686;2023-04-24T15:51:09;12.50;99.90
42663;DHT22;44330;51.360;6.686;2023-04-24T15:53:35;12.50;99.90
42663;DHT22;44330;51.360;6.686;2023-04-24T15:56:01;12.60;99.90
42663;DHT22;44330;51.360;6.686;2023-04-24T15:58:26;12.60;99.90
42663;DHT22;44330;51.360;6.686;2023-04-24T16:00:52;12.70;1.00
42663;DHT22;44330;51.360;6.686;2023-04-24T16:03:19;12.50;1.00
42663;DHT22;44330;51.360;6.686;2023-04-24T16:05:45;12.50;99.90
42663;DHT22;44330;51.360;6.686;2023-04-24T16:08:10;12.50;56.60
42663;DHT22;44330;51.360;6.686;2023-04-24T16:10:36;12.50;12.80
42663;DHT22;44330;51.360;6.686;2023-04-24T16:13:02;12.70;81.90
42663;DHT22;44330;51.360;6.686;2023-04-24T16:15:29;12.80;99.90
42663;DHT22;44330;51.360;6.686;2023-04-24T16:17:55;12.90;99.90
42663;DHT22;44330;51.360;6.686;2023-04-24T16:20:21;13.00;92.40
42663;DHT22;44330;51.360;6.686;2023-04-24T16:22:46;13.20;99.90
42663;DHT22;44330;51.360;6.686;2023-04-24T16:25:12;13.20;1.00
42663;DHT22;44330;51.360;6.686;2023-04-24T16:27:37;13.30;99.90
42663;DHT22;44330;51.360;6.686;2023-04-24T16:30:04;13.30;99.90
42663;DHT22;44330;51.360;6.686;2023-04-24T16:32:29;13.30;99.90
42663;DHT22;44330;51.360;6.686;2023-04-24T16:34:55;13.40;56.00
42663;DHT22;44330;51.360;6.686;2023-04-24T16:37:21;13.30;99.90
42663;DHT22;44330;51.360;6.686;2023-04-24T16:39:46;13.30;7.90
42663;DHT22;44330;51.360;6.686;2023-04-24T16:42:13;13.30;1.00